Terminal Aerodrome Forecast
Issued by NWS

Home | Current Version | Previous Version | Graphics & Text | Print | Product List | Glossary On
Versions: 1 2 3 4 5 6 7 8 9 10 11 12 13 14 15 16 17 18 19 20 21 22 23 24 25 26
000
FTUS43 KLOT 250041 AAA
TAFORD
TAF AMD
KORD 250041Z 2501/2606 29014G20KT P6SM SCT070
     FM250130 32020G30KT 6SM -SHRA BKN070
     FM250200 34010KT P6SM -SHRA BKN070
     FM250400 27008KT P6SM FEW070
     FM251500 29014G21KT P6SM SCT035 BKN050
     FM260100 27010KT P6SM SCT050=

USA.gov is the U.S. government's official web portal to all federal, state and local government web resources and services.